Time;durP1;ratioP1;P1;durP2;ratioP2;P2;SDS_P1;SDS_P2;PMS_P1;PMS_P2;Temp;Humidity;BMP_temperature;BMP_pressure;BME280_temperature;BME280_humidity;BME280_pressure;Samples;Min_cycle;Max_cycle;Signal;HPM_P1;HPM_P2
2023/07/21 00:01:47;;;;;;;3.27;2.53;;;;;;;18.89;75.51;97703.00;4203094;28;21342;-78
2023/07/21 00:03:50;;;;;;;2.50;2.23;;;;;;;18.91;75.39;97699.22;4201078;28;20689;-78
2023/07/21 00:05:52;;;;;;;3.80;2.87;;;;;;;18.94;74.67;97696.25;4200201;28;21120;-78
2023/07/21 00:07:56;;;;;;;2.87;2.30;;;;;;;18.94;75.33;97693.59;4199017;28;20996;-78
2023/07/21 00:10:07;;;;;;;2.83;2.20;;;;;;;18.93;75.11;97686.66;4182474;28;20655;-78
2023/07/21 00:12:10;;;;;;;4.60;2.70;;;;;;;18.93;75.75;97683.19;4203975;28;20639;-78
2023/07/21 00:14:13;;;;;;;4.70;3.10;;;;;;;18.87;75.47;97681.22;4202841;28;20646;-78
2023/07/21 00:16:18;;;;;;;4.13;2.70;;;;;;;18.86;74.94;97678.72;4200372;28;20678;-78
2023/07/21 00:18:21;;;;;;;3.37;2.43;;;;;;;18.85;75.28;97688.47;4202032;28;20653;-78
2023/07/21 00:20:25;;;;;;;3.10;2.63;;;;;;;18.85;75.46;97691.09;4202035;28;20749;-78
2023/07/21 00:22:28;;;;;;;4.00;2.70;;;;;;;18.82;75.92;97690.63;4186195;28;20662;-78
2023/07/21 00:24:32;;;;;;;3.20;2.83;;;;;;;18.79;75.69;97683.81;4199784;28;20665;-78
2023/07/21 00:26:37;;;;;;;3.33;2.60;;;;;;;18.80;75.28;97682.84;4185954;28;20742;-78
2023/07/21 00:28:41;;;;;;;7.87;3.10;;;;;;;18.77;75.64;97685.81;4204457;28;20681;-78
2023/07/21 00:30:46;;;;;;;3.17;2.37;;;;;;;18.73;75.74;97684.47;4212315;28;20646;-78
2023/07/21 00:32:50;;;;;;;3.30;2.70;;;;;;;18.67;76.05;97673.75;4202608;28;20640;-78
2023/07/21 00:34:54;;;;;;;3.53;2.73;;;;;;;18.66;75.53;97683.50;4199032;28;20639;-78
2023/07/21 00:36:57;;;;;;;3.87;2.93;;;;;;;18.64;75.10;97677.56;4203797;28;20636;-78
2023/07/21 00:39:00;;;;;;;3.30;2.87;;;;;;;18.63;75.71;97678.56;4204134;28;20639;-78
2023/07/21 00:41:04;;;;;;;3.73;2.50;;;;;;;18.61;75.78;97674.41;4200753;28;20657;-78
2023/07/21 00:43:08;;;;;;;2.50;2.30;;;;;;;18.60;75.83;97678.88;4205904;28;20647;-77
2023/07/21 00:45:14;;;;;;;4.17;3.10;;;;;;;18.61;76.30;97683.19;4202232;28;20654;-78
2023/07/21 00:47:17;;;;;;;3.30;2.67;;;;;;;18.60;76.27;97676.25;4202138;28;20650;-78
2023/07/21 00:49:21;;;;;;;4.57;3.23;;;;;;;18.60;76.61;97672.78;4203271;28;20666;-78
2023/07/21 00:51:24;;;;;;;3.03;2.70;;;;;;;18.54;77.14;97673.44;4208763;28;20701;-78
2023/07/21 00:53:27;;;;;;;3.30;2.60;;;;;;;18.53;76.47;97677.88;4200546;28;20827;-78
2023/07/21 00:55:31;;;;;;;3.90;2.73;;;;;;;18.51;76.79;97679.03;4206216;28;20718;-78
2023/07/21 00:57:35;;;;;;;2.90;2.60;;;;;;;18.52;76.82;97678.88;4204152;28;20650;-78
2023/07/21 00:59:39;;;;;;;3.00;2.40;;;;;;;18.52;76.16;97676.25;4201408;28;20644;-78
2023/07/21 01:07:51;;;;;;;4.47;3.40;;;;;;;18.43;77.61;97684.28;4135424;28;20701;-82
2023/07/21 01:09:55;;;;;;;3.00;2.40;;;;;;;18.44;76.87;97678.84;4105354;28;20734;-81
2023/07/21 01:11:58;;;;;;;8.07;2.93;;;;;;;18.44;76.76;97686.78;4107423;28;20658;-81
2023/07/21 01:14:03;;;;;;;3.67;3.03;;;;;;;18.45;77.52;97674.41;4131346;28;20753;-81
2023/07/21 01:16:08;;;;;;;3.67;3.23;;;;;;;18.44;77.88;97672.75;4107325;28;20669;-81
2023/07/21 01:18:13;;;;;;;3.40;2.77;;;;;;;18.43;77.53;97671.94;4123413;28;20760;-81
2023/07/21 01:20:15;;;;;;;3.50;2.70;;;;;;;18.44;76.73;97668.28;4120199;28;20649;-81
2023/07/21 01:22:23;;;;;;;4.43;2.77;;;;;;;18.46;76.94;97666.31;4123468;28;20651;-81
2023/07/21 01:24:32;;;;;;;3.67;2.60;;;;;;;18.46;77.22;97670.75;4122541;28;20637;-81
2023/07/21 01:26:39;;;;;;;4.90;3.13;;;;;;;18.46;77.04;97671.59;4108367;28;20685;-81
2023/07/21 01:28:42;;;;;;;3.63;2.90;;;;;;;18.46;76.85;97660.19;4117192;28;20749;-81
2023/07/21 01:30:48;;;;;;;3.47;2.77;;;;;;;18.47;76.37;97661.84;4104551;28;20749;-81
2023/07/21 01:32:51;;;;;;;3.43;2.57;;;;;;;18.48;76.43;97664.34;4105297;28;20665;-81
2023/07/21 01:34:56;;;;;;;3.27;2.83;;;;;;;18.48;76.03;97652.94;4102344;28;20653;-81
2023/07/21 01:36:59;;;;;;;2.97;2.60;;;;;;;18.46;74.91;97661.03;4117282;28;20656;-81
2023/07/21 01:39:03;;;;;;;4.07;2.57;;;;;;;18.45;75.83;97648.00;4117222;28;20681;-82
2023/07/21 01:41:08;;;;;;;2.63;2.13;;;;;;;18.43;76.62;97661.38;4117801;28;20687;-81
2023/07/21 01:43:14;;;;;;;3.43;3.00;;;;;;;18.41;76.59;97655.41;4111338;28;20718;-81
2023/07/21 01:45:18;;;;;;;2.80;2.30;;;;;;;18.41;76.10;97659.06;4121351;28;20671;-81
2023/07/21 01:47:24;;;;;;;3.60;3.00;;;;;;;18.39;76.36;97653.09;4135093;28;20760;-81
2023/07/21 01:49:27;;;;;;;4.13;2.80;;;;;;;18.39;75.79;97648.66;4106809;28;21053;-81
2023/07/21 01:51:31;;;;;;;5.40;3.00;;;;;;;18.38;75.60;97648.81;4122418;28;20759;-81
2023/07/21 01:53:36;;;;;;;4.17;3.00;;;;;;;18.38;75.95;97646.97;4116778;28;20776;-81
2023/07/21 01:55:43;;;;;;;3.87;2.70;;;;;;;18.38;75.99;97651.44;4119452;28;20740;-81
2023/07/21 01:57:50;;;;;;;4.23;3.10;;;;;;;18.37;76.30;97650.59;4119184;28;20645;-81
2023/07/21 01:59:56;;;;;;;3.20;2.90;;;;;;;18.35;76.96;97643.84;4106434;28;21091;-81
2023/07/21 02:02:00;;;;;;;3.53;3.07;;;;;;;18.33;76.69;97646.66;4110200;28;21018;-82
2023/07/21 02:04:04;;;;;;;3.50;2.73;;;;;;;18.34;75.83;97639.56;4105090;28;20651;-81
2023/07/21 02:06:14;;;;;;;3.63;2.50;;;;;;;18.32;76.00;97642.34;4104600;28;21028;-81
2023/07/21 02:08:17;;;;;;;3.77;2.90;;;;;;;18.33;76.51;97644.03;4118846;28;20655;-81
2023/07/21 02:10:21;;;;;;;3.67;3.00;;;;;;;18.31;75.92;97643.38;4120254;28;20654;-81
2023/07/21 02:12:33;;;;;;;4.30;2.63;;;;;;;18.31;76.95;97639.88;4116875;28;21111;-81
2023/07/21 02:14:44;;;;;;;4.20;2.90;;;;;;;18.30;76.39;97635.59;4117613;28;20648;-81
2023/07/21 02:16:49;;;;;;;3.20;2.57;;;;;;;18.26;77.67;97634.28;4105029;28;20766;-81
2023/07/21 02:18:52;;;;;;;3.70;2.90;;;;;;;18.21;78.17;97639.22;4122466;28;20705;-82
2023/07/21 02:20:56;;;;;;;3.47;2.77;;;;;;;18.16;77.83;97633.59;4120762;28;20652;-82
2023/07/21 02:23:00;;;;;;;4.83;3.40;;;;;;;18.14;76.97;97630.28;4110289;28;20658;-82
2023/07/21 02:25:04;;;;;;;3.73;2.80;;;;;;;18.17;76.84;97638.69;4118955;28;20647;-81
2023/07/21 02:27:09;;;;;;;4.50;2.67;;;;;;;18.16;77.27;97644.13;4103075;28;20655;-81
2023/07/21 02:29:12;;;;;;;3.40;2.70;;;;;;;18.13;76.51;97636.53;4109223;28;20659;-81
2023/07/21 02:31:15;;;;;;;3.23;2.83;;;;;;;18.12;76.75;97635.69;4135817;28;21038;-81
2023/07/21 02:33:20;;;;;;;3.37;2.63;;;;;;;18.10;76.73;97629.75;4123445;28;20708;-82
2023/07/21 02:35:23;;;;;;;3.87;3.00;;;;;;;18.10;78.00;97636.84;4140960;28;20655;-81
2023/07/21 02:37:27;;;;;;;4.20;2.80;;;;;;;18.11;77.30;97627.94;4127943;28;20652;-81
2023/07/21 02:39:31;;;;;;;4.13;2.97;;;;;;;18.10;77.14;97631.56;4128063;28;20643;-81
2023/07/21 02:41:34;;;;;;;3.70;2.90;;;;;;;18.09;77.14;97624.66;4126459;28;20677;-82
2023/07/21 02:43:37;;;;;;;3.80;2.80;;;;;;;18.08;78.30;97622.97;4122264;28;20661;-82
2023/07/21 02:45:39;;;;;;;3.03;2.53;;;;;;;18.07;76.73;97618.69;4121512;28;20752;-81
2023/07/21 02:47:42;;;;;;;3.50;2.53;;;;;;;18.06;76.86;97624.97;4118539;28;21246;-81
2023/07/21 02:49:47;;;;;;;5.23;3.10;;;;;;;18.05;77.82;97618.84;4118346;28;20666;-81
2023/07/21 02:51:50;;;;;;;3.53;2.83;;;;;;;18.05;77.34;97623.31;4126254;28;20778;-81
2023/07/21 02:53:53;;;;;;;3.47;2.40;;;;;;;18.03;77.76;97620.00;4106139;28;20684;-82
2023/07/21 02:55:58;;;;;;;3.43;2.93;;;;;;;18.03;77.68;97617.38;4136208;28;20664;-82
2023/07/21 02:58:02;;;;;;;3.17;2.77;;;;;;;18.00;77.53;97620.34;4123248;28;20649;-81
2023/07/21 03:00:12;;;;;;;3.23;2.50;;;;;;;17.96;77.44;97621.63;4105046;28;20650;-81
2023/07/21 03:02:25;;;;;;;4.73;2.80;;;;;;;17.93;78.26;97625.41;4121658;28;20755;-81
2023/07/21 03:04:31;;;;;;;3.63;2.60;;;;;;;17.94;77.96;97629.72;4109503;28;20759;-81
2023/07/21 03:06:38;;;;;;;4.20;2.90;;;;;;;17.96;77.71;97624.28;4107604;28;20692;-81
2023/07/21 03:08:41;;;;;;;4.40;2.80;;;;;;;17.99;78.23;97627.41;4123346;28;20649;-81
2023/07/21 03:10:46;;;;;;;3.23;2.80;;;;;;;17.99;78.93;97627.41;4114791;28;21090;-81
2023/07/21 03:12:53;;;;;;;3.20;2.40;;;;;;;17.99;78.83;97618.66;4103505;28;20642;-81
2023/07/21 03:15:02;;;;;;;5.03;3.30;;;;;;;17.96;78.46;97629.56;4119067;28;20681;-81
2023/07/21 03:17:17;;;;;;;4.80;3.23;;;;;;;17.96;77.63;97624.28;4120812;28;21240;-81
2023/07/21 03:19:20;;;;;;;4.20;3.20;;;;;;;17.96;77.48;97632.19;4120524;28;20791;-81
2023/07/21 03:21:23;;;;;;;3.73;2.70;;;;;;;17.94;77.91;97627.06;4118424;28;20648;-81
2023/07/21 03:23:27;;;;;;;3.10;2.70;;;;;;;17.94;77.18;97626.25;4117954;28;20668;-82
2023/07/21 03:25:32;;;;;;;3.60;2.93;;;;;;;17.95;77.25;97631.38;4110410;28;20664;-81
2023/07/21 03:27:35;;;;;;;4.03;2.53;;;;;;;17.94;77.73;97629.72;4134173;28;20641;-82
2023/07/21 03:29:38;;;;;;;3.33;3.03;;;;;;;17.96;78.04;97629.56;4116761;28;21237;-82
2023/07/21 03:31:43;;;;;;;4.13;3.00;;;;;;;17.94;77.83;97628.91;4126994;28;21234;-81
2023/07/21 03:33:49;;;;;;;4.50;3.10;;;;;;;17.93;77.67;97630.69;4132573;28;21009;-81
2023/07/21 03:36:01;;;;;;;3.93;2.60;;;;;;;17.94;77.41;97632.34;4110340;28;20680;-81
2023/07/21 03:38:04;;;;;;;3.37;2.80;;;;;;;17.93;77.53;97635.97;4135205;28;20645;-82
2023/07/21 03:40:10;;;;;;;3.63;2.90;;;;;;;17.92;77.42;97635.31;4107607;28;20686;-81
2023/07/21 03:42:14;;;;;;;3.00;2.57;;;;;;;17.90;77.85;97626.72;4099540;28;20754;-81
2023/07/21 03:44:17;;;;;;;4.07;2.90;;;;;;;17.88;77.62;97629.53;4113190;28;20646;-82
2023/07/21 03:46:21;;;;;;;4.20;2.97;;;;;;;17.84;78.19;97625.56;4126273;28;20662;-81
2023/07/21 03:48:39;;;;;;;4.73;3.03;;;;;;;17.82;77.33;97632.81;4117673;28;20651;-81
2023/07/21 03:50:44;;;;;;;4.37;2.70;;;;;;;17.80;77.85;97629.53;4108136;28;24111;-81
2023/07/21 03:52:47;;;;;;;5.20;3.30;;;;;;;17.76;79.20;97624.72;4123490;28;20707;-81
2023/07/21 03:54:51;;;;;;;3.73;3.37;;;;;;;17.70;79.97;97626.19;4109444;28;20684;-81
2023/07/21 03:56:57;;;;;;;3.50;3.20;;;;;;;17.66;79.33;97631.94;4109418;28;20688;-81
2023/07/21 03:59:00;;;;;;;3.93;2.90;;;;;;;17.64;79.01;97621.53;4105577;28;21232;-81
2023/07/21 04:01:04;;;;;;;3.40;2.67;;;;;;;17.65;80.08;97630.25;4134021;28;20700;-81
2023/07/21 04:03:08;;;;;;;4.47;3.00;;;;;;;17.61;79.53;97619.22;4126003;28;20661;-83
2023/07/21 04:05:13;;;;;;;4.80;3.53;;;;;;;17.62;80.23;97620.03;4118288;28;20709;-81
2023/07/21 04:07:16;;;;;;;4.50;3.33;;;;;;;17.59;80.00;97621.19;4107844;28;20682;-81
2023/07/21 04:09:19;;;;;;;3.07;2.70;;;;;;;17.56;80.39;97616.25;4125080;28;21135;-81
2023/07/21 04:11:23;;;;;;;4.73;3.50;;;;;;;17.52;79.45;97614.91;4119822;28;21093;-81
2023/07/21 04:13:27;;;;;;;4.77;3.40;;;;;;;17.52;79.55;97614.06;4105683;28;20674;-83
2023/07/21 04:15:29;;;;;;;3.47;2.97;;;;;;;17.53;80.26;97613.91;4124611;28;20662;-81
2023/07/21 04:17:32;;;;;;;4.93;2.90;;;;;;;17.55;80.26;97608.47;4130740;28;20656;-83
2023/07/21 04:19:36;;;;;;;3.90;3.20;;;;;;;17.58;80.30;97618.72;4128087;28;21299;-84
2023/07/21 04:21:39;;;;;;;8.47;3.77;;;;;;;17.59;80.95;97609.78;4114801;28;21271;-83
2023/07/21 04:23:42;;;;;;;4.20;3.13;;;;;;;17.63;80.74;97611.16;4100734;28;20706;-83
2023/07/21 04:25:46;;;;;;;3.40;2.80;;;;;;;17.67;81.17;97618.56;4119350;28;20743;-81
2023/07/21 04:27:54;;;;;;;3.90;2.90;;;;;;;17.72;80.20;97615.47;4121269;28;20647;-83
2023/07/21 04:29:59;;;;;;;4.90;3.03;;;;;;;17.75;79.31;97615.97;4105706;28;20687;-83
2023/07/21 04:32:04;;;;;;;4.13;3.50;;;;;;;17.78;78.79;97605.09;4124991;28;20657;-81
2023/07/21 04:34:07;;;;;;;4.27;3.47;;;;;;;17.83;79.25;97610.72;4118833;28;20650;-81
2023/07/21 04:36:13;;;;;;;5.07;3.43;;;;;;;17.84;78.17;97601.81;4121072;28;20651;-81
2023/07/21 04:38:16;;;;;;;4.87;3.73;;;;;;;17.87;78.30;97608.59;4118522;28;20700;-80
2023/07/21 04:40:25;;;;;;;3.63;3.00;;;;;;;17.90;80.04;97606.44;4124090;28;20719;-81
2023/07/21 04:42:29;;;;;;;4.57;3.30;;;;;;;17.96;79.23;97608.44;4102740;28;21131;-81
2023/07/21 04:44:32;;;;;;;9.17;6.00;;;;;;;17.99;79.04;97611.56;4114345;28;20651;-81
2023/07/21 04:46:37;;;;;;;5.10;3.87;;;;;;;18.05;79.43;97618.03;4101958;28;20699;-82
2023/07/21 04:48:40;;;;;;;5.03;4.03;;;;;;;18.09;78.43;97614.91;4115840;28;20663;-82
2023/07/21 04:50:52;;;;;;;4.50;3.60;;;;;;;18.15;77.78;97613.47;4127284;28;20646;-81
2023/07/21 04:52:55;;;;;;;5.03;3.80;;;;;;;18.18;77.83;97616.59;4098128;28;20662;-81
2023/07/21 04:54:58;;;;;;;4.50;3.50;;;;;;;18.23;78.37;97616.94;4120071;28;20664;-80
2023/07/21 04:57:02;;;;;;;3.90;2.87;;;;;;;18.34;77.97;97629.00;4118041;28;21274;-81
2023/07/21 04:59:06;;;;;;;5.47;4.00;;;;;;;18.43;78.27;97629.66;4115575;28;21223;-81
2023/07/21 05:01:09;;;;;;;4.87;3.40;;;;;;;18.48;78.32;97626.53;4111719;28;21337;-81
2023/07/21 05:03:13;;;;;;;3.90;3.20;;;;;;;18.49;77.39;97633.44;4100916;28;20662;-81
2023/07/21 05:05:18;;;;;;;5.83;4.00;;;;;;;18.53;77.26;97627.69;4126187;28;20655;-81
2023/07/21 05:07:26;;;;;;;4.70;3.70;;;;;;;18.58;77.44;97621.91;4111441;28;20704;-81
2023/07/21 05:09:34;;;;;;;5.03;3.60;;;;;;;18.60;77.00;97636.59;4103541;28;20656;-81
2023/07/21 05:11:44;;;;;;;5.83;3.80;;;;;;;18.60;76.93;97635.78;4098446;28;20747;-80
2023/07/21 05:13:53;;;;;;;4.30;3.10;;;;;;;18.61;76.85;97632.97;4117278;28;21347;-81
2023/07/21 05:16:05;;;;;;;4.17;3.57;;;;;;;18.67;76.79;97645.53;4120527;28;20745;-81
2023/07/21 05:18:18;;;;;;;3.70;2.87;;;;;;;18.71;77.02;97644.19;4104106;28;20960;-81
2023/07/21 05:20:49;;;;;;;5.60;3.30;;;;;;;18.76;77.10;97643.69;4118568;28;20657;-81
2023/07/21 05:22:57;;;;;;;4.30;3.50;;;;;;;18.79;76.45;97644.19;4120456;28;20743;-81
2023/07/21 05:25:21;;;;;;;3.80;3.07;;;;;;;18.81;76.76;97639.56;4118115;28;21015;-81
2023/07/21 05:27:24;;;;;;;6.87;3.50;;;;;;;18.83;76.43;97642.88;4130921;28;20712;-81
2023/07/21 05:29:30;;;;;;;3.80;3.03;;;;;;;18.85;76.02;97640.88;4098496;28;20651;-81
2023/07/21 05:31:33;;;;;;;5.20;3.50;;;;;;;18.88;76.53;97637.91;4106550;28;20663;-81
2023/07/21 05:33:47;;;;;;;6.00;3.40;;;;;;;18.87;76.20;97638.91;4121131;28;20771;-81
2023/07/21 05:35:50;;;;;;;3.70;3.23;;;;;;;18.83;76.43;97636.78;4113565;28;20666;-81
2023/07/21 05:38:02;;;;;;;4.30;3.60;;;;;;;18.85;76.73;97640.88;4107984;28;20847;-81
2023/07/21 05:40:07;;;;;;;4.30;3.47;;;;;;;18.87;77.40;97643.34;4122266;28;20809;-81
2023/07/21 05:42:11;;;;;;;7.13;5.57;;;;;;;18.90;78.05;97638.59;4116878;28;20681;-81
2023/07/21 05:44:14;;;;;;;4.40;3.60;;;;;;;18.93;78.18;97648.81;4114219;28;20651;-81
2023/07/21 05:46:17;;;;;;;5.73;4.93;;;;;;;18.96;78.26;97638.72;4128463;28;20651;-81
2023/07/21 05:48:29;;;;;;;5.23;3.13;;;;;;;18.99;77.46;97654.25;4110762;28;20664;-81
2023/07/21 05:50:38;;;;;;;6.40;3.70;;;;;;;19.01;76.60;97646.16;4111295;28;20748;-81
2023/07/21 05:52:43;;;;;;;7.40;3.20;;;;;;;19.03;75.15;97644.19;4115786;28;20711;-80
2023/07/21 05:54:54;;;;;;;4.63;3.27;;;;;;;19.04;75.39;97646.69;4092385;28;20706;-81
2023/07/21 05:57:01;;;;;;;6.87;3.50;;;;;;;19.07;74.83;97641.06;4110004;28;20654;-81
2023/07/21 05:59:14;;;;;;;4.47;3.23;;;;;;;19.10;74.97;97634.63;4107745;28;20679;-81
2023/07/21 06:01:19;;;;;;;5.30;3.50;;;;;;;19.16;75.82;97640.03;4102597;28;20969;-81
2023/07/21 06:03:24;;;;;;;4.10;3.40;;;;;;;19.27;75.65;97644.16;4100908;28;20652;-81
2023/07/21 06:05:29;;;;;;;3.90;3.20;;;;;;;19.37;75.65;97644.81;4122358;28;20673;-81
2023/07/21 06:07:49;;;;;;;3.87;3.50;;;;;;;19.46;74.64;97642.78;4130401;28;21048;-81
2023/07/21 06:10:08;;;;;;;4.03;3.63;;;;;;;19.57;75.67;97646.88;4121267;28;20649;-81
2023/07/21 06:12:41;;;;;;;8.90;3.47;;;;;;;19.66;74.22;97644.03;4114945;28;20651;-81
2023/07/21 06:14:59;;;;;;;4.93;3.43;;;;;;;19.76;76.07;97649.13;4131529;28;22122;-81
2023/07/21 06:17:28;;;;;;;5.90;3.43;;;;;;;19.84;74.39;97645.47;4121299;28;20753;-81
2023/07/21 06:19:34;;;;;;;5.37;3.80;;;;;;;19.94;74.07;97658.50;4114486;28;20697;-81
2023/07/21 06:21:37;;;;;;;4.17;3.50;;;;;;;20.13;74.04;97650.97;4105727;28;20636;-81
2023/07/21 06:23:43;;;;;;;4.13;3.27;;;;;;;20.51;73.90;97648.22;4110617;28;21119;-81
2023/07/21 06:25:46;;;;;;;4.00;3.43;;;;;;;20.80;74.52;97648.34;4111975;28;21331;-81
2023/07/21 06:27:51;;;;;;;3.50;2.80;;;;;;;21.19;71.84;97656.97;4110815;28;20682;-81
2023/07/21 06:29:55;;;;;;;4.17;3.10;;;;;;;21.78;71.47;97653.19;4107299;28;20743;-81
2023/07/21 06:32:02;;;;;;;5.20;2.80;;;;;;;22.09;68.43;97651.09;4126108;28;20648;-81
2023/07/21 06:34:43;;;;;;;7.50;2.60;;;;;;;22.22;67.82;97645.97;4115594;28;20682;-81
2023/07/21 06:37:05;;;;;;;4.10;2.60;;;;;;;22.47;67.34;97645.44;4123230;28;20802;-81
2023/07/21 06:39:22;;;;;;;3.17;2.33;;;;;;;22.54;65.27;97641.00;4126219;28;21093;-81
2023/07/21 06:41:40;;;;;;;4.30;2.67;;;;;;;22.41;65.13;97635.53;4106703;28;20653;-81
2023/07/21 06:44:04;;;;;;;4.10;2.27;;;;;;;22.34;65.04;97641.81;4105828;28;20659;-81
2023/07/21 06:46:19;;;;;;;3.40;1.90;;;;;;;22.33;64.58;97640.19;4102656;28;20663;-81
2023/07/21 06:48:23;;;;;;;3.60;2.43;;;;;;;22.43;63.31;97643.34;4139046;28;21200;-82
2023/07/21 06:50:47;;;;;;;4.77;2.83;;;;;;;22.58;66.23;97647.63;4100551;28;20706;-81
2023/07/21 06:52:50;;;;;;;3.00;2.30;;;;;;;22.67;66.26;97641.13;4110575;28;20719;-82
2023/07/21 06:54:58;;;;;;;3.10;2.53;;;;;;;22.72;65.51;97633.41;4098349;28;20663;-82
2023/07/21 06:57:02;;;;;;;3.33;2.70;;;;;;;22.71;64.78;97639.75;4109109;28;20651;-81
2023/07/21 06:59:05;;;;;;;2.50;2.00;;;;;;;22.76;64.79;97638.16;4120638;28;20648;-81
2023/07/21 07:01:10;;;;;;;3.20;2.40;;;;;;;22.78;63.90;97635.31;4115839;28;21358;-82
2023/07/21 07:03:13;;;;;;;2.83;2.30;;;;;;;22.78;63.17;97632.66;4117872;28;20678;-82
2023/07/21 07:05:18;;;;;;;3.23;2.37;;;;;;;22.80;62.12;97644.72;4105596;28;20658;-84
2023/07/21 07:07:21;;;;;;;3.27;2.70;;;;;;;22.84;62.56;97634.56;4101638;28;20767;-84
2023/07/21 07:09:25;;;;;;;6.80;2.73;;;;;;;22.84;63.96;97632.72;4135525;28;20646;-84
2023/07/21 07:11:30;;;;;;;2.67;2.43;;;;;;;22.97;64.33;97637.34;4123917;28;20646;-84
2023/07/21 07:13:33;;;;;;;4.17;2.50;;;;;;;23.38;63.04;97639.91;4131335;28;20658;-84
2023/07/21 07:15:36;;;;;;;3.93;2.50;;;;;;;23.69;64.05;97651.00;4107978;28;20660;-84
2023/07/21 07:17:39;;;;;;;3.10;2.50;;;;;;;24.02;63.64;97660.78;4105650;28;20661;-84
2023/07/21 07:19:43;;;;;;;4.10;2.40;;;;;;;24.33;63.53;97661.19;4107719;28;20650;-84
2023/07/21 07:21:47;;;;;;;3.90;2.77;;;;;;;24.83;62.99;97670.31;4114798;28;20668;-84
2023/07/21 07:23:50;;;;;;;3.50;2.13;;;;;;;25.30;60.89;97679.03;4105541;28;20753;-85
2023/07/21 07:25:54;;;;;;;5.03;2.37;;;;;;;25.69;60.17;97679.84;4131316;28;21258;-84
2023/07/21 07:27:59;;;;;;;3.37;2.57;;;;;;;26.07;59.05;97688.78;4121742;28;20808;-84
2023/07/21 07:30:02;;;;;;;3.30;2.33;;;;;;;25.97;58.45;97683.03;4130285;28;21216;-83
2023/07/21 07:32:07;;;;;;;3.43;2.20;;;;;;;25.73;58.24;97677.56;4101500;28;20654;-83
2023/07/21 07:34:10;;;;;;;3.00;2.20;;;;;;;25.49;57.73;97667.47;4139451;28;20674;-84
2023/07/21 07:36:14;;;;;;;3.00;2.03;;;;;;;25.48;58.41;97663.16;4122495;28;20662;-83
2023/07/21 07:38:18;;;;;;;3.77;2.60;;;;;;;25.46;58.41;97661.75;4121883;28;20716;-83
2023/07/21 07:40:21;;;;;;;2.37;1.90;;;;;;;25.49;58.77;97667.47;4133394;28;20754;-83
2023/07/21 07:42:25;;;;;;;3.13;2.10;;;;;;;25.43;58.03;97662.97;4110068;28;20654;-83
2023/07/21 07:44:29;;;;;;;4.70;2.30;;;;;;;25.33;58.86;97662.59;4133592;28;20718;-83
2023/07/21 07:46:32;;;;;;;4.40;2.43;;;;;;;25.26;58.56;97661.75;4122848;28;20700;-83
2023/07/21 07:48:36;;;;;;;3.03;2.30;;;;;;;25.50;58.73;97663.78;4107541;28;21089;-83
2023/07/21 07:50:39;;;;;;;3.73;2.40;;;;;;;25.72;57.86;97668.69;4114492;28;21324;-83
2023/07/21 07:52:43;;;;;;;3.13;2.10;;;;;;;25.76;57.54;97663.78;4115773;28;21015;-83
2023/07/21 07:54:47;;;;;;;2.60;2.17;;;;;;;25.77;56.97;97654.69;4121478;28;20671;-83
2023/07/21 07:56:51;;;;;;;3.20;2.23;;;;;;;25.74;56.99;97650.63;4107858;28;20703;-83
2023/07/21 07:58:57;;;;;;;4.60;1.90;;;;;;;25.73;57.46;97654.31;4118821;28;20686;-83
2023/07/21 08:01:01;;;;;;;3.50;2.70;;;;;;;25.71;58.16;97651.03;4123309;28;20645;-83
2023/07/21 08:03:09;;;;;;;7.27;2.57;;;;;;;25.65;58.73;97651.06;4117433;28;20759;-83
2023/07/21 08:05:13;;;;;;;3.40;2.50;;;;;;;25.54;57.53;97650.81;4107289;28;20662;-83
2023/07/21 08:07:18;;;;;;;3.83;2.13;;;;;;;25.42;57.71;97642.59;4115099;28;20713;-83
2023/07/21 08:09:22;;;;;;;2.80;2.20;;;;;;;25.34;58.16;97648.19;4106584;28;20690;-83
2023/07/21 08:11:25;;;;;;;2.57;2.03;;;;;;;25.25;58.58;97644.06;4118528;28;20690;-83
2023/07/21 08:13:29;;;;;;;3.43;2.63;;;;;;;25.20;57.21;97649.22;4134923;28;20989;-83
2023/07/21 08:15:32;;;;;;;3.87;2.23;;;;;;;25.11;58.55;97641.63;4103811;28;20663;-83
2023/07/21 08:17:38;;;;;;;2.80;2.40;;;;;;;25.11;58.91;97644.31;4134532;28;20758;-83
2023/07/21 08:19:42;;;;;;;4.10;2.63;;;;;;;25.13;59.16;97645.72;4138591;28;21030;-83
2023/07/21 08:21:45;;;;;;;2.50;1.90;;;;;;;25.21;59.45;97648.19;4123390;28;20651;-83
2023/07/21 08:23:49;;;;;;;2.40;1.67;;;;;;;25.28;58.31;97651.66;4118002;28;20695;-83
2023/07/21 08:25:53;;;;;;;3.63;2.43;;;;;;;25.35;58.89;97654.31;4130912;28;20656;-83
2023/07/21 08:27:58;;;;;;;4.17;2.03;;;;;;;25.40;58.15;97646.53;4133390;28;20664;-83
2023/07/21 08:30:02;;;;;;;2.90;2.20;;;;;;;25.51;57.84;97653.91;4121291;28;20643;-83
2023/07/21 08:32:06;;;;;;;4.47;2.00;;;;;;;25.70;58.26;97656.59;4135712;28;20685;-83
2023/07/21 08:34:11;;;;;;;4.17;2.30;;;;;;;25.85;58.59;97654.50;4123616;28;20676;-83
2023/07/21 08:36:14;;;;;;;2.50;1.90;;;;;;;25.96;58.00;97656.50;4102068;28;21243;-83
2023/07/21 08:38:17;;;;;;;2.50;1.77;;;;;;;26.06;57.63;97654.22;4130321;28;21204;-83
2023/07/21 08:40:22;;;;;;;4.37;1.90;;;;;;;26.08;57.05;97656.47;4117508;28;20664;-83
2023/07/21 08:42:26;;;;;;;2.43;1.83;;;;;;;26.17;56.05;97660.53;4126261;28;20659;-83
2023/07/21 08:44:31;;;;;;;3.00;2.00;;;;;;;26.20;56.12;97657.44;4124959;28;21147;-83
2023/07/21 08:46:34;;;;;;;2.47;1.70;;;;;;;26.21;55.52;97656.41;4133207;28;20681;-83
2023/07/21 08:48:40;;;;;;;2.90;1.80;;;;;;;26.23;54.63;97658.88;4133400;28;21260;-83
2023/07/21 08:50:49;;;;;;;2.33;1.70;;;;;;;26.21;53.74;97658.28;4121020;28;20689;-83
2023/07/21 08:52:52;;;;;;;2.83;1.53;;;;;;;26.18;53.94;97661.38;4104509;28;20664;-83
2023/07/21 08:54:55;;;;;;;2.73;1.40;;;;;;;26.05;54.37;97658.72;4108606;28;20731;-83
2023/07/21 08:56:59;;;;;;;2.53;1.87;;;;;;;25.99;54.39;97656.09;4131806;28;20662;-83
2023/07/21 08:59:02;;;;;;;2.30;1.30;;;;;;;25.90;53.92;97660.03;4133673;28;21074;-83
2023/07/21 09:01:07;;;;;;;2.47;1.43;;;;;;;25.88;53.22;97662.09;4111697;28;20671;-83
2023/07/21 09:03:10;;;;;;;4.23;1.97;;;;;;;26.10;53.48;97658.94;4120128;28;20698;-83
2023/07/21 09:05:16;;;;;;;2.27;1.30;;;;;;;26.65;51.24;97659.91;4134389;28;20643;-83
2023/07/21 09:07:21;;;;;;;2.60;1.37;;;;;;;26.95;52.00;97663.66;4133388;28;20765;-83
2023/07/21 09:09:26;;;;;;;1.90;1.47;;;;;;;27.13;50.70;97669.09;4131864;28;20737;-83
2023/07/21 09:11:35;;;;;;;2.57;1.60;;;;;;;27.13;49.91;97658.38;4121605;28;20652;-83
2023/07/21 09:13:38;;;;;;;2.07;1.30;;;;;;;27.09;50.10;97667.88;4119072;28;20683;-83
2023/07/21 09:15:51;;;;;;;2.53;1.27;;;;;;;27.02;50.13;97669.81;4131922;28;21051;-83
2023/07/21 09:17:55;;;;;;;2.30;1.50;;;;;;;26.92;49.87;97671.31;4132232;28;20985;-83
2023/07/21 09:19:58;;;;;;;2.20;1.40;;;;;;;26.85;50.47;97657.97;4131437;28;20655;-83
2023/07/21 09:22:01;;;;;;;3.03;1.40;;;;;;;26.79;50.92;97657.97;4118749;28;20719;-83
2023/07/21 09:24:08;;;;;;;2.13;1.50;;;;;;;26.76;51.65;97658.41;4132522;28;20667;-83
2023/07/21 09:26:12;;;;;;;2.30;1.80;;;;;;;26.78;51.75;97659.84;4118770;28;20651;-83
2023/07/21 09:28:15;;;;;;;2.07;1.47;;;;;;;26.82;51.89;97654.88;4122271;28;20747;-83
2023/07/21 09:30:18;;;;;;;3.17;2.00;;;;;;;26.78;50.92;97651.81;4103101;28;20767;-83
2023/07/21 09:32:21;;;;;;;2.30;1.53;;;;;;;26.92;51.62;97645.34;4121228;28;20644;-83
2023/07/21 09:34:24;;;;;;;2.27;1.50;;;;;;;27.15;50.56;97648.25;4123030;28;21290;-83
2023/07/21 09:36:28;;;;;;;2.63;2.00;;;;;;;27.23;50.40;97656.06;4123071;28;20737;-83
2023/07/21 09:38:31;;;;;;;2.30;1.60;;;;;;;27.20;50.00;97648.44;4133550;28;20647;-83
2023/07/21 09:40:41;;;;;;;2.30;1.57;;;;;;;27.33;51.14;97654.50;4116314;28;20662;-83
2023/07/21 09:42:45;;;;;;;4.10;1.80;;;;;;;27.41;50.52;97656.91;4120797;28;20681;-83
2023/07/21 09:44:49;;;;;;;2.07;1.43;;;;;;;27.61;49.53;97660.25;4133659;28;20758;-83
2023/07/21 09:46:53;;;;;;;3.20;1.47;;;;;;;27.89;50.69;97657.88;4136318;28;20656;-83
2023/07/21 09:48:56;;;;;;;1.93;1.40;;;;;;;28.23;50.67;97661.63;4121676;28;20651;-83
2023/07/21 09:51:01;;;;;;;2.13;1.70;;;;;;;28.08;49.22;97653.16;4135780;28;20690;-83
2023/07/21 09:53:04;;;;;;;2.13;1.40;;;;;;;28.26;49.94;97655.00;4110098;28;21281;-83
2023/07/21 09:55:08;;;;;;;1.80;1.33;;;;;;;28.37;49.25;97657.78;4124079;28;20666;-83
2023/07/21 09:57:17;;;;;;;2.30;1.77;;;;;;;28.56;49.94;97660.16;4122482;28;20786;-83
2023/07/21 09:59:21;;;;;;;3.07;1.77;;;;;;;28.69;48.97;97654.66;4139193;28;20754;-83